Time;durP1;ratioP1;P1;durP2;ratioP2;P2;SDS_P1;SDS_P2;PMS_P1;PMS_P2;Temp;Humidity;BMP_temperature;BMP_pressure;BME280_temperature;BME280_humidity;BME280_pressure;Samples;Min_cycle;Max_cycle;Signal;HPM_P1;HPM_P2
2022/08/28 05:47:52;;;;;;;6.13;4.75;;;;;;;;;;6173214;23;20399;-87
2022/08/28 05:50:18;;;;;;;5.38;4.50;;;;;;;;;;6187489;23;20044;-86
2022/08/28 05:52:44;;;;;;;4.95;4.00;;;;;;;;;;6160831;23;20037;-86
2022/08/28 05:55:11;;;;;;;5.28;4.60;;;;;;;;;;6139721;23;20451;-86
2022/08/28 05:57:37;;;;;;;5.32;4.50;;;;;;;;;;6157166;23;20004;-84
2022/08/28 06:00:04;;;;;;;7.38;5.57;;;;;;;;;;6131979;23;20008;-94
2022/08/28 06:02:30;;;;;;;6.75;6.05;;;;;;;;;;6131771;23;20008;-91
2022/08/28 06:04:56;;;;;;;7.88;5.55;;;;;;;;;;6132488;23;20407;-92
2022/08/28 06:07:22;;;;;;;5.53;5.00;;;;;;;;;;6157858;23;20006;-92
2022/08/28 06:09:48;;;;;;;362.33;189.55;;;;;;;;;;6132406;23;20009;-93
2022/08/28 06:12:14;;;;;;;205.45;110.07;;;;;;;;;;6132421;23;20068;-93
2022/08/28 06:14:40;;;;;;;48.88;29.90;;;;;;;;;;6131494;23;20088;-93
2022/08/28 06:17:05;;;;;;;11.63;8.98;;;;;;;;;;6132055;23;20008;-93
2022/08/28 06:19:34;;;;;;;8.55;6.72;;;;;;;;;;6131319;23;20017;-84
2022/08/28 06:22:01;;;;;;;6.53;5.82;;;;;;;;;;6157553;23;20087;-86
2022/08/28 06:24:27;;;;;;;7.07;5.68;;;;;;;;;;6156672;23;19998;-85
2022/08/28 08:38:32;;;;;;;5.43;4.93;;;;;;;;;;6135844;23;20044;-77
2022/08/28 08:41:00;;;;;;;4.82;4.40;;;;;;;;;;6157675;23;20013;-76
2022/08/28 08:43:29;;;;;;;5.18;4.68;;;;;;;;;;6149884;23;20009;-77
2022/08/28 08:45:54;;;;;;;5.32;4.78;;;;;;;;;;6127913;23;20026;-77
2022/08/28 08:48:28;;;;;;;6.28;5.65;;;;;;;;;;6128196;23;19998;-77
2022/08/28 08:50:58;;;;;;;6.50;6.00;;;;;;;;;;6128584;23;20002;-77
2022/08/28 08:53:43;;;;;;;5.47;5.07;;;;;;;;;;6128165;23;20033;-76
2022/08/28 08:56:15;;;;;;;5.57;5.07;;;;;;;;;;6128064;23;20548;-77
2022/08/28 08:58:46;;;;;;;7.45;5.97;;;;;;;;;;6128129;23;20009;-76
2022/08/28 09:01:20;;;;;;;5.85;5.20;;;;;;;;;;6128199;23;20006;-76
2022/08/28 09:04:21;;;;;;;5.65;5.25;;;;;;;;;;6128240;23;20006;-76
2022/08/28 09:07:11;;;;;;;5.88;5.30;;;;;;;;;;6127971;23;20425;-77
2022/08/28 09:09:41;;;;;;;6.65;5.50;;;;;;;;;;6128022;23;20321;-77
2022/08/28 09:12:28;;;;;;;5.93;5.28;;;;;;;;;;6128130;23;20006;-77
2022/08/28 09:15:13;;;;;;;5.63;4.88;;;;;;;;;;6127942;23;20080;-77
2022/08/28 09:17:51;;;;;;;5.70;5.15;;;;;;;;;;6127906;23;20418;-77
2022/08/28 09:20:22;;;;;;;6.68;5.97;;;;;;;;;;6127616;23;20056;-77
2022/08/28 09:22:47;;;;;;;6.10;5.60;;;;;;;;;;6127841;23;20429;-75
2022/08/28 09:25:48;;;;;;;6.30;5.80;;;;;;;;;;6127689;23;20009;-77
2022/08/28 09:28:20;;;;;;;6.40;5.85;;;;;;;;;;6125373;23;20014;-76
2022/08/28 09:30:54;;;;;;;5.78;5.25;;;;;;;;;;6127628;23;19998;-75
2022/08/28 09:33:57;;;;;;;6.25;5.70;;;;;;;;;;6150725;23;20006;-74
2022/08/28 09:36:36;;;;;;;6.03;5.43;;;;;;;;;;6125963;23;20006;-74
2022/08/28 09:39:17;;;;;;;6.38;5.82;;;;;;;;;;6154981;23;20013;-73
2022/08/28 09:44:30;;;;;;;6.22;5.68;;;;;;;;;;6157127;23;20015;-83
2022/08/28 09:46:55;;;;;;;6.55;5.90;;;;;;;;;;6130393;23;20029;-79
2022/08/28 09:49:24;;;;;;;6.25;5.65;;;;;;;;;;6155654;23;20006;-82
2022/08/28 09:51:50;;;;;;;6.05;5.55;;;;;;;;;;6156870;23;20005;-85
2022/08/28 09:54:29;;;;;;;8.48;5.90;;;;;;;;;;6156869;23;20009;-85
2022/08/28 09:56:55;;;;;;;8.93;6.18;;;;;;;;;;6156917;23;20009;-85
2022/08/28 09:59:23;;;;;;;7.22;5.40;;;;;;;;;;6156583;23;20425;-82
2022/08/28 10:01:52;;;;;;;6.70;6.10;;;;;;;;;;6156703;23;20056;-85
2022/08/28 10:04:32;;;;;;;7.00;5.93;;;;;;;;;;6156916;23;20060;-92
2022/08/28 10:07:01;;;;;;;6.03;5.53;;;;;;;;;;6156577;23;20043;-83
2022/08/28 10:09:44;;;;;;;6.53;5.55;;;;;;;;;;6130674;23;20422;-81
2022/08/28 10:12:36;;;;;;;5.72;5.13;;;;;;;;;;6155175;23;20006;-83
2022/08/28 10:15:22;;;;;;;6.18;5.57;;;;;;;;;;6156604;23;20001;-84
2022/08/28 10:18:12;;;;;;;6.60;6.00;;;;;;;;;;6156936;23;20008;-90
2022/08/28 10:21:00;;;;;;;6.25;5.65;;;;;;;;;;6156786;23;20052;-86
2022/08/28 10:23:34;;;;;;;6.47;5.88;;;;;;;;;;6157060;23;20337;-85
2022/08/28 10:26:21;;;;;;;6.25;5.75;;;;;;;;;;6156740;23;20073;-87
2022/08/28 10:29:27;;;;;;;6.55;5.95;;;;;;;;;;6157630;23;20005;-87
2022/08/28 10:32:11;;;;;;;6.22;5.63;;;;;;;;;;6158226;23;20015;-86
2022/08/28 10:34:42;;;;;;;7.35;6.35;;;;;;;;;;6157027;23;20025;-89
2022/08/28 10:37:23;;;;;;;6.55;5.53;;;;;;;;;;6157185;23;20013;-90
2022/08/28 10:40:02;;;;;;;6.00;5.50;;;;;;;;;;6131273;23;20016;-84
2022/08/28 10:42:38;;;;;;;5.75;5.15;;;;;;;;;;6156986;23;20340;-84
2022/08/28 10:45:23;;;;;;;5.45;4.95;;;;;;;;;;6156836;23;20005;-78
2022/08/28 10:48:00;;;;;;;5.85;5.07;;;;;;;;;;6156730;23;20006;-85
2022/08/28 10:50:32;;;;;;;5.15;4.65;;;;;;;;;;6157270;23;20084;-86
2022/08/28 10:53:27;;;;;;;5.00;4.53;;;;;;;;;;6157048;23;20005;-81
2022/08/28 10:55:54;;;;;;;6.05;5.30;;;;;;;;;;6157140;23;20083;-89
2022/08/28 10:58:23;;;;;;;6.93;4.82;;;;;;;;;;6156722;23;20116;-85
2022/08/28 11:00:52;;;;;;;6.45;5.70;;;;;;;;;;6156150;23;20140;-87
2022/08/28 11:03:21;;;;;;;6.00;5.50;;;;;;;;;;6156304;23;20417;-86
2022/08/28 11:06:07;;;;;;;5.68;5.20;;;;;;;;;;6156003;23;20073;-85
2022/08/28 11:08:35;;;;;;;6.30;5.70;;;;;;;;;;6156271;23;20017;-84
2022/08/28 11:11:04;;;;;;;6.18;5.57;;;;;;;;;;6155861;23;20006;-84
2022/08/28 11:13:44;;;;;;;6.50;5.90;;;;;;;;;;6156053;23;20306;-84
2022/08/28 11:16:18;;;;;;;5.97;5.47;;;;;;;;;;6155892;23;20452;-85
2022/08/28 11:19:02;;;;;;;7.72;6.10;;;;;;;;;;6155801;23;20001;-83
2022/08/28 11:21:49;;;;;;;6.53;5.93;;;;;;;;;;6131264;23;20006;-82
2022/08/28 11:24:27;;;;;;;7.53;5.60;;;;;;;;;;6155863;23;20002;-79
2022/08/28 11:27:17;;;;;;;5.85;5.18;;;;;;;;;;6156272;23;20322;-84
2022/08/28 11:30:05;;;;;;;5.55;5.00;;;;;;;;;;6156058;23;20344;-85
2022/08/28 11:32:30;;;;;;;11.05;5.35;;;;;;;;;;6157243;23;20413;-83
2022/08/28 11:34:57;;;;;;;5.38;4.97;;;;;;;;;;6157684;23;20064;-78
2022/08/28 11:37:39;;;;;;;4.93;4.40;;;;;;;;;;6157691;23;20044;-82
2022/08/28 11:40:28;;;;;;;5.88;5.38;;;;;;;;;;6157598;23;20006;-84
2022/08/28 11:43:15;;;;;;;6.22;5.63;;;;;;;;;;6157608;23;20064;-82
2022/08/28 11:45:46;;;;;;;5.30;4.90;;;;;;;;;;6157942;23;20006;-78
2022/08/28 11:48:24;;;;;;;5.05;4.55;;;;;;;;;;6157597;23;20021;-77
2022/08/28 11:50:53;;;;;;;5.37;4.70;;;;;;;;;;6157830;23;20009;-80
2022/08/28 11:53:41;;;;;;;;;;;;;;;;;;6158290;23;20001;-82
2022/08/28 11:56:39;;;;;;;5.22;4.72;;;;;;;;;;6138160;23;19959;-82
2022/08/28 11:59:08;;;;;;;5.25;4.80;;;;;;;;;;6157915;23;20413;-81
2022/08/28 12:01:34;;;;;;;5.10;4.60;;;;;;;;;;6157854;23;20056;-78
2022/08/28 12:04:03;;;;;;;4.93;4.43;;;;;;;;;;6157741;23;20005;-80
2022/08/28 12:06:47;;;;;;;5.35;4.80;;;;;;;;;;6157730;23;20452;-82
2022/08/28 12:09:25;;;;;;;5.95;5.13;;;;;;;;;;6158060;23;20006;-80
2022/08/28 12:11:54;;;;;;;6.10;4.95;;;;;;;;;;6157613;23;20082;-80
2022/08/28 12:14:26;;;;;;;4.70;4.30;;;;;;;;;;6157446;23;20048;-82
2022/08/28 12:16:58;;;;;;;5.30;4.80;;;;;;;;;;6157523;23;20002;-77
2022/08/28 12:19:43;;;;;;;5.72;4.93;;;;;;;;;;6157570;23;20036;-77
2022/08/28 12:22:12;;;;;;;6.43;5.18;;;;;;;;;;6157570;23;20024;-78
2022/08/28 12:24:59;;;;;;;4.57;4.28;;;;;;;;;;6157557;23;20371;-82
2022/08/28 12:27:26;;;;;;;;;;;;;;;;;;6156985;23;20318;-80
2022/08/28 12:29:56;;;;;;;5.05;4.55;;;;;;;;;;6157037;23;19991;-79
2022/08/28 12:32:32;;;;;;;4.10;3.70;;;;;;;;;;6157358;23;20001;-80
2022/08/28 12:34:57;;;;;;;4.57;4.25;;;;;;;;;;6157003;23;20068;-77
2022/08/28 12:37:41;;;;;;;4.18;3.88;;;;;;;;;;6156925;23;20427;-80
2022/08/28 12:40:06;;;;;;;4.15;3.85;;;;;;;;;;6156808;23;20010;-81
2022/08/28 12:42:37;;;;;;;5.00;4.50;;;;;;;;;;6156911;23;20424;-80
2022/08/28 12:45:07;;;;;;;4.70;4.10;;;;;;;;;;6156957;23;20380;-80
2022/08/28 12:47:35;;;;;;;5.03;4.47;;;;;;;;;;6157227;23;20088;-80
2022/08/28 12:50:19;;;;;;;;;;;;;;;;;;6157358;23;20485;-80
2022/08/28 12:52:50;;;;;;;5.78;4.55;;;;;;;;;;6157131;23;19908;-76
2022/08/28 12:55:17;;;;;;;5.05;4.65;;;;;;;;;;6157275;23;20001;-80
2022/08/28 12:57:46;;;;;;;5.70;4.82;;;;;;;;;;6157249;23;20012;-79
2022/08/28 13:00:23;;;;;;;4.50;4.10;;;;;;;;;;6156980;23;20413;-79
2022/08/28 13:02:52;;;;;;;4.65;4.35;;;;;;;;;;6156960;23;20012;-78
2022/08/28 13:05:22;;;;;;;;;;;;;;;;;;6157488;23;20012;-80
2022/08/28 13:07:52;;;;;;;4.45;4.15;;;;;;;;;;6156955;23;19916;-80
2022/08/28 13:10:23;;;;;;;5.47;4.30;;;;;;;;;;6157299;23;19998;-76
2022/08/28 13:13:05;;;;;;;5.43;4.75;;;;;;;;;;6156904;23;20002;-78
2022/08/28 13:15:44;;;;;;;5.20;4.70;;;;;;;;;;6156808;23;19998;-81
2022/08/28 13:18:09;;;;;;;4.88;4.38;;;;;;;;;;6156806;23;20005;-79
2022/08/28 13:20:37;;;;;;;4.90;4.50;;;;;;;;;;6156671;23;20016;-80
2022/08/28 13:23:03;;;;;;;4.45;4.07;;;;;;;;;;6156690;23;20414;-78
2022/08/28 13:25:35;;;;;;;5.30;4.75;;;;;;;;;;6156787;23;19998;-80
2022/08/28 13:28:03;;;;;;;4.93;4.13;;;;;;;;;;6156591;23;20488;-80
2022/08/28 13:30:32;;;;;;;5.13;4.63;;;;;;;;;;6156825;23;19998;-80
2022/08/28 13:33:22;;;;;;;4.78;4.38;;;;;;;;;;6156929;23;20422;-81
2022/08/28 13:35:48;;;;;;;4.38;3.97;;;;;;;;;;6156515;23;20340;-81
2022/08/28 13:38:17;;;;;;;5.32;4.47;;;;;;;;;;6156655;23;20020;-80
2022/08/28 13:40:45;;;;;;;6.80;5.60;;;;;;;;;;6156510;23;20088;-81
2022/08/28 13:43:11;;;;;;;4.40;3.92;;;;;;;;;;6156858;23;20409;-80
2022/08/28 13:45:40;;;;;;;4.78;4.38;;;;;;;;;;6156138;23;20017;-81
2022/08/28 13:48:06;;;;;;;4.75;4.22;;;;;;;;;;6156521;23;20001;-79
2022/08/28 13:50:32;;;;;;;6.93;4.32;;;;;;;;;;6156966;23;20012;-81
2022/08/28 13:52:57;;;;;;;4.70;3.92;;;;;;;;;;6156363;23;20006;-82
2022/08/28 13:55:23;;;;;;;4.40;4.10;;;;;;;;;;6156386;23;20019;-82
2022/08/28 13:57:48;;;;;;;7.80;4.70;;;;;;;;;;6156948;23;20005;-78
2022/08/28 14:00:15;;;;;;;5.03;4.53;;;;;;;;;;6157062;23;20006;-79
2022/08/28 14:05:26;;;;;;;4.55;4.15;;;;;;;;;;6156931;23;20064;-79
2022/08/28 14:07:51;;;;;;;6.20;4.53;;;;;;;;;;6156905;23;20001;-79
2022/08/28 14:10:17;;;;;;;4.53;4.13;;;;;;;;;;6156821;23;20000;-80
2022/08/28 14:12:45;;;;;;;5.72;4.55;;;;;;;;;;6156937;23;20017;-83
2022/08/28 14:15:11;;;;;;;4.30;4.00;;;;;;;;;;6156793;23;19997;-84
2022/08/28 14:17:36;;;;;;;5.32;4.10;;;;;;;;;;6156687;23;20372;-78
2022/08/28 14:20:02;;;;;;;5.75;4.72;;;;;;;;;;6156673;23;20437;-78
2022/08/28 14:22:29;;;;;;;5.78;4.38;;;;;;;;;;6157011;23;20491;-78
2022/08/28 14:24:55;;;;;;;4.47;4.00;;;;;;;;;;6156864;23;20047;-77
2022/08/28 14:27:21;;;;;;;6.50;4.68;;;;;;;;;;6156522;23;20077;-81
2022/08/28 14:29:47;;;;;;;4.85;4.35;;;;;;;;;;6156547;23;20468;-77
2022/08/28 14:32:13;;;;;;;5.75;5.18;;;;;;;;;;6156542;23;20329;-78
2022/08/28 14:34:39;;;;;;;7.45;4.93;;;;;;;;;;6156547;23;20009;-77
2022/08/28 14:37:05;;;;;;;5.03;4.57;;;;;;;;;;6156500;23;20557;-79
2022/08/28 14:39:30;;;;;;;5.30;4.80;;;;;;;;;;6156333;23;20055;-79
2022/08/28 14:41:56;;;;;;;5.30;4.85;;;;;;;;;;6156435;23;20181;-78
2022/08/28 14:44:23;;;;;;;4.65;4.25;;;;;;;;;;6156304;23;20006;-78
2022/08/28 14:46:50;;;;;;;5.97;4.82;;;;;;;;;;6156336;23;20001;-83
2022/08/28 14:49:17;;;;;;;4.35;4.05;;;;;;;;;;6156455;23;20005;-77
2022/08/28 14:51:44;;;;;;;4.80;4.40;;;;;;;;;;6156386;23;20336;-77
2022/08/28 14:54:14;;;;;;;5.00;4.55;;;;;;;;;;6156386;23;20009;-76
2022/08/28 14:56:41;;;;;;;17.70;10.40;;;;;;;;;;6156335;23;20376;-75
2022/08/28 14:59:07;;;;;;;6.95;5.63;;;;;;;;;;6156273;23;19998;-77
2022/08/28 15:01:35;;;;;;;5.82;5.13;;;;;;;;;;6156210;23;20413;-76
2022/08/28 15:04:06;;;;;;;6.00;5.40;;;;;;;;;;6154707;23;20005;-75
2022/08/28 15:06:32;;;;;;;5.25;4.72;;;;;;;;;;6156076;23;20005;-75
2022/08/28 15:08:57;;;;;;;5.63;5.10;;;;;;;;;;6156579;23;20011;-76
2022/08/28 15:11:25;;;;;;;5.05;4.60;;;;;;;;;;6156480;23;20085;-75
2022/08/28 15:13:51;;;;;;;5.60;4.82;;;;;;;;;;6156358;23;20017;-76
2022/08/28 15:16:30;;;;;;;8.40;7.50;;;;;;;;;;6156179;23;20013;-76
2022/08/28 15:18:57;;;;;;;5.10;4.60;;;;;;;;;;6130066;23;20009;-76
2022/08/28 15:21:31;;;;;;;5.20;4.70;;;;;;;;;;6156348;23;20012;-75
2022/08/28 15:23:57;;;;;;;5.30;4.85;;;;;;;;;;6156206;23;20012;-76
2022/08/28 15:26:25;;;;;;;4.97;4.50;;;;;;;;;;6156269;23;20006;-76
2022/08/28 15:28:56;;;;;;;5.88;4.55;;;;;;;;;;6156120;23;20006;-76
2022/08/28 15:31:23;;;;;;;4.70;4.30;;;;;;;;;;6156506;23;20010;-76
2022/08/28 15:33:49;;;;;;;6.10;4.80;;;;;;;;;;6155808;23;20005;-76
2022/08/28 15:36:15;;;;;;;5.55;4.88;;;;;;;;;;6156175;23;20002;-76
2022/08/28 15:41:25;;;;;;;5.22;4.72;;;;;;;;;;6155732;23;20041;-75
2022/08/28 15:43:53;;;;;;;5.53;4.78;;;;;;;;;;6155922;23;20002;-76
2022/08/28 15:46:19;;;;;;;6.32;5.72;;;;;;;;;;6156149;23;20013;-76
2022/08/28 15:48:47;;;;;;;5.53;5.03;;;;;;;;;;6156164;23;20005;-76
2022/08/28 15:51:13;;;;;;;9.00;5.30;;;;;;;;;;6155971;23;20068;-77
2022/08/28 15:53:39;;;;;;;6.82;5.18;;;;;;;;;;6156055;23;20406;-77
2022/08/28 15:56:04;;;;;;;5.43;4.45;;;;;;;;;;6154418;23;20005;-77
2022/08/28 15:58:30;;;;;;;5.63;5.13;;;;;;;;;;6156031;23;20009;-74
2022/08/28 16:00:57;;;;;;;5.68;5.18;;;;;;;;;;6155788;23;20310;-77
2022/08/28 16:03:22;;;;;;;4.97;4.57;;;;;;;;;;6156080;23;20006;-77
2022/08/28 16:05:48;;;;;;;5.30;4.88;;;;;;;;;;6156292;23;20504;-79
2022/08/28 16:08:13;;;;;;;6.82;4.90;;;;;;;;;;6156074;23;20006;-77
2022/08/28 16:10:39;;;;;;;7.25;4.72;;;;;;;;;;6156046;23;20009;-76
2022/08/28 16:13:05;;;;;;;5.45;5.03;;;;;;;;;;6156170;23;20056;-78
2022/08/28 16:15:32;;;;;;;5.53;4.88;;;;;;;;;;6156018;23;20005;-76
2022/08/28 16:17:57;;;;;;;5.50;5.00;;;;;;;;;;6156711;23;20080;-76
2022/08/28 16:20:24;;;;;;;5.55;4.90;;;;;;;;;;6157927;23;20384;-79
2022/08/28 16:22:50;;;;;;;5.55;4.97;;;;;;;;;;6157813;23;20039;-78
2022/08/28 16:25:16;;;;;;;6.35;5.30;;;;;;;;;;6157790;23;20114;-77
2022/08/28 16:27:42;;;;;;;5.32;4.82;;;;;;;;;;6157705;23;20013;-78
2022/08/28 16:30:08;;;;;;;5.65;4.78;;;;;;;;;;6157715;23;20006;-78
2022/08/28 16:32:34;;;;;;;6.25;4.97;;;;;;;;;;6156057;23;20002;-78
2022/08/28 16:35:01;;;;;;;5.68;5.18;;;;;;;;;;6157453;23;20011;-76
2022/08/28 16:37:27;;;;;;;5.45;4.95;;;;;;;;;;6157479;23;20018;-79
2022/08/28 16:39:54;;;;;;;6.10;5.50;;;;;;;;;;6157375;23;20020;-80
2022/08/28 16:42:20;;;;;;;7.07;5.88;;;;;;;;;;6157546;23;20421;-80
2022/08/28 16:44:46;;;;;;;5.88;5.22;;;;;;;;;;6157410;23;20440;-82
2022/08/28 16:47:12;;;;;;;5.75;4.97;;;;;;;;;;6131532;23;20006;-76
2022/08/28 16:49:38;;;;;;;6.43;5.82;;;;;;;;;;6131352;23;20005;-76
2022/08/28 16:52:04;;;;;;;7.50;5.57;;;;;;;;;;6157497;23;20300;-78
2022/08/28 16:54:29;;;;;;;5.63;5.10;;;;;;;;;;6157033;23;20009;-76
2022/08/28 16:56:55;;;;;;;7.07;6.05;;;;;;;;;;6158039;23;20005;-79
2022/08/28 16:59:20;;;;;;;14.35;7.53;;;;;;;;;;6157515;23;20037;-78
2022/08/28 17:01:47;;;;;;;6.15;5.45;;;;;;;;;;6157430;23;20006;-76
2022/08/28 17:04:13;;;;;;;7.45;5.78;;;;;;;;;;6157259;23;20085;-81
2022/08/28 17:06:38;;;;;;;6.22;5.68;;;;;;;;;;6157289;23;20001;-80
2022/08/28 17:09:05;;;;;;;7.95;5.88;;;;;;;;;;6157219;23;20417;-76
2022/08/28 17:11:30;;;;;;;6.53;5.85;;;;;;;;;;6157618;23;20048;-78
2022/08/28 17:13:56;;;;;;;5.82;5.22;;;;;;;;;;6157356;23;20006;-79
2022/08/28 17:16:23;;;;;;;6.28;5.65;;;;;;;;;;6157393;23;20005;-79
2022/08/28 17:18:48;;;;;;;6.47;5.72;;;;;;;;;;6157288;23;20377;-77
2022/08/28 17:23:58;;;;;;;9.70;8.07;;;;;;;;;;6157323;23;20017;-77
2022/08/28 17:26:24;;;;;;;9.15;8.25;;;;;;;;;;6157534;23;20001;-76
2022/08/28 17:28:50;;;;;;;7.82;7.03;;;;;;;;;;6156714;23;20006;-81
2022/08/28 17:31:16;;;;;;;7.35;6.55;;;;;;;;;;6156899;23;20110;-82
2022/08/28 17:33:43;;;;;;;6.95;6.25;;;;;;;;;;6157178;23;20002;-81
2022/08/28 17:36:16;;;;;;;6.90;6.00;;;;;;;;;;6157696;23;20010;-79
2022/08/28 17:38:43;;;;;;;7.75;6.22;;;;;;;;;;6156733;23;20009;-79
2022/08/28 17:41:08;;;;;;;8.65;6.30;;;;;;;;;;6156967;23;20009;-80
2022/08/28 19:10:09;;;;;;;6.13;5.32;;;;;;;;;;6145146;23;20256;-80
2022/08/28 19:12:36;;;;;;;6.07;5.47;;;;;;;;;;6185561;23;20091;-79
2022/08/28 19:15:02;;;;;;;5.80;5.22;;;;;;;;;;6186058;23;20001;-79
2022/08/28 19:17:28;;;;;;;7.82;6.55;;;;;;;;;;6179479;23;20512;-80
2022/08/28 19:19:54;;;;;;;8.20;6.40;;;;;;;;;;6156084;23;20337;-83
2022/08/28 19:22:20;;;;;;;8.13;6.60;;;;;;;;;;6156537;23;20006;-84
2022/08/28 19:24:47;;;;;;;6.75;6.05;;;;;;;;;;6156179;23;20079;-81
2022/08/28 19:27:14;;;;;;;12.57;10.85;;;;;;;;;;6156864;23;20001;-81
2022/08/28 19:29:39;;;;;;;8.18;7.32;;;;;;;;;;6156017;23;20011;-81
2022/08/28 19:32:05;;;;;;;6.15;5.55;;;;;;;;;;6156663;23;20005;-82
2022/08/28 19:34:31;;;;;;;6.82;6.22;;;;;;;;;;6156598;23;20384;-82
2022/08/28 19:36:59;;;;;;;7.25;5.90;;;;;;;;;;6156071;23;20324;-86
2022/08/28 19:39:24;;;;;;;7.85;5.90;;;;;;;;;;6156289;23;20006;-80
2022/08/28 19:41:51;;;;;;;7.50;6.05;;;;;;;;;;6156645;23;20002;-84
2022/08/28 19:44:16;;;;;;;6.70;6.00;;;;;;;;;;6156364;23;20013;-84
2022/08/28 19:46:42;;;;;;;5.85;5.32;;;;;;;;;;6156437;23;20010;-83
2022/08/28 19:49:08;;;;;;;10.40;6.88;;;;;;;;;;6156174;23;20035;-85
2022/08/28 19:51:35;;;;;;;7.45;6.72;;;;;;;;;;6156382;23;20445;-84
2022/08/28 19:54:02;;;;;;;7.05;6.25;;;;;;;;;;6158123;23;20008;-84
2022/08/28 19:56:31;;;;;;;9.20;6.20;;;;;;;;;;6160575;23;20009;-89
2022/08/28 19:58:59;;;;;;;6.13;5.53;;;;;;;;;;6159127;23;20008;-83
2022/08/28 20:01:30;;;;;;;7.93;6.05;;;;;;;;;;6158453;23;20010;-87
2022/08/28 20:03:56;;;;;;;7.40;6.13;;;;;;;;;;6157793;23;20060;-84
2022/08/28 20:06:22;;;;;;;7.57;6.15;;;;;;;;;;6158197;23;20005;-86
2022/08/28 20:08:48;;;;;;;6.57;5.95;;;;;;;;;;6157999;23;20032;-85
2022/08/28 20:11:18;;;;;;;6.15;5.55;;;;;;;;;;6158060;23;20048;-86
2022/08/28 20:13:43;;;;;;;6.40;5.72;;;;;;;;;;6158265;23;20005;-93
2022/08/28 20:16:09;;;;;;;7.25;6.35;;;;;;;;;;6161828;23;20012;-93
2022/08/28 20:18:34;;;;;;;6.03;5.43;;;;;;;;;;6160703;23;20084;-93
2022/08/28 20:21:00;;;;;;;7.05;6.35;;;;;;;;;;6160546;23;20418;-87
2022/08/28 20:23:27;;;;;;;6.78;5.90;;;;;;;;;;6159101;23;20330;-89
2022/08/28 20:25:53;;;;;;;9.13;7.20;;;;;;;;;;6160900;23;20012;-92
2022/08/28 20:28:18;;;;;;;11.77;10.38;;;;;;;;;;6159122;23;20005;-85
2022/08/28 20:30:45;;;;;;;7.53;6.55;;;;;;;;;;6131998;23;20037;-81
2022/08/28 20:33:11;;;;;;;8.25;6.30;;;;;;;;;;6157316;23;20008;-83
2022/08/28 20:35:37;;;;;;;7.55;6.55;;;;;;;;;;6157612;23;20006;-79
2022/08/28 20:38:03;;;;;;;7.20;6.45;;;;;;;;;;6157652;23;20005;-80
2022/08/28 20:40:29;;;;;;;15.13;13.52;;;;;;;;;;6157405;23;20012;-84
2022/08/28 20:42:55;;;;;;;14.82;13.25;;;;;;;;;;6157817;23;20006;-81
2022/08/28 20:45:20;;;;;;;8.60;7.63;;;;;;;;;;6157699;23;20009;-79
2022/08/28 20:47:46;;;;;;;8.57;6.70;;;;;;;;;;6157550;23;20028;-79
2022/08/28 20:50:12;;;;;;;8.60;7.07;;;;;;;;;;6157597;23;20028;-81
2022/08/28 20:52:38;;;;;;;9.18;7.50;;;;;;;;;;6157300;23;20012;-80
2022/08/28 20:55:09;;;;;;;7.15;6.45;;;;;;;;;;6157698;23;20033;-79
2022/08/28 20:57:35;;;;;;;7.95;7.15;;;;;;;;;;6157697;23;20025;-77
2022/08/28 21:00:01;;;;;;;7.50;6.90;;;;;;;;;;6158083;23;20085;-92
2022/08/28 21:02:28;;;;;;;10.60;8.82;;;;;;;;;;6157708;23;20006;-81
2022/08/28 21:04:54;;;;;;;9.18;8.15;;;;;;;;;;6157358;23;20001;-82
2022/08/28 21:07:21;;;;;;;9.82;8.65;;;;;;;;;;6157925;23;20064;-80
2022/08/28 21:09:47;;;;;;;10.55;7.95;;;;;;;;;;6157823;23;20432;-79
2022/08/28 21:12:12;;;;;;;9.48;8.52;;;;;;;;;;6157763;23;20012;-79
2022/08/28 21:14:38;;;;;;;9.52;8.45;;;;;;;;;;6157540;23;20009;-84
2022/08/28 21:17:04;;;;;;;8.85;7.95;;;;;;;;;;6155294;23;20016;-83
2022/08/28 21:19:31;;;;;;;8.60;7.78;;;;;;;;;;6131026;23;20029;-83
2022/08/28 21:21:57;;;;;;;8.82;7.90;;;;;;;;;;6157443;23;20008;-83
2022/08/28 21:24:22;;;;;;;9.00;8.10;;;;;;;;;;6131064;23;20088;-83
2022/08/28 21:26:49;;;;;;;7.55;6.85;;;;;;;;;;6157263;23;20002;-85
2022/08/28 21:29:18;;;;;;;9.05;7.80;;;;;;;;;;6157115;23;20005;-83
2022/08/28 21:31:46;;;;;;;7.60;6.90;;;;;;;;;;6157301;23;20010;-84
2022/08/28 21:34:12;;;;;;;8.25;7.45;;;;;;;;;;6157187;23;20028;-83
2022/08/28 21:36:42;;;;;;;7.65;6.85;;;;;;;;;;6157170;23;20303;-83
2022/08/28 21:39:08;;;;;;;10.63;6.43;;;;;;;;;;6156998;23;20021;-82
2022/08/28 21:41:33;;;;;;;11.50;8.32;;;;;;;;;;6157071;23;20032;-83
2022/08/28 21:43:59;;;;;;;10.05;8.57;;;;;;;;;;6131472;23;20005;-85
2022/08/28 21:46:24;;;;;;;8.02;7.22;;;;;;;;;;6157200;23;20372;-83
2022/08/28 21:48:51;;;;;;;7.88;7.07;;;;;;;;;;6157047;23;20006;-83
2022/08/28 21:51:18;;;;;;;9.07;7.65;;;;;;;;;;6157116;23;20008;-84
2022/08/28 21:53:44;;;;;;;8.23;7.05;;;;;;;;;;6157015;23;20001;-85
2022/08/28 21:56:15;;;;;;;7.47;6.78;;;;;;;;;;6157027;23;20005;-85
2022/08/28 21:58:40;;;;;;;7.20;6.22;;;;;;;;;;6156965;23;20413;-84
2022/08/28 22:01:10;;;;;;;8.13;7.03;;;;;;;;;;6157236;23;20021;-85
2022/08/28 22:03:35;;;;;;;7.15;6.40;;;;;;;;;;6157057;23;20009;-84
2022/08/28 22:06:01;;;;;;;6.95;6.32;;;;;;;;;;6157302;23;20036;-86
2022/08/28 22:08:27;;;;;;;9.40;7.30;;;;;;;;;;6157559;23;20001;-86
2022/08/28 22:10:54;;;;;;;16.23;12.73;;;;;;;;;;6156748;23;20014;-87
2022/08/28 22:13:19;;;;;;;12.70;11.43;;;;;;;;;;6157447;23;20333;-84
2022/08/28 22:15:46;;;;;;;10.85;9.40;;;;;;;;;;6156725;23;20041;-86
2022/08/28 22:18:13;;;;;;;10.10;8.50;;;;;;;;;;6157211;23;20088;-86
2022/08/28 22:23:08;;;;;;;7.78;6.97;;;;;;;;;;6157215;23;20337;-81
2022/08/28 22:23:28;;;;;;;7.90;7.20;;;;;;;;;;6156824;23;20002;-87
